sensor_id;sensor_type;location;lat;lon;timestamp;P1;durP1;ratioP1;P2;durP2;ratioP2
39970;SDS011;35425;51.142;17.178;2023-04-01T00:00:21;0.95;;;0.70;;
39970;SDS011;35425;51.142;17.178;2023-04-01T00:02:48;1.00;;;0.90;;
39970;SDS011;35425;51.142;17.178;2023-04-01T00:05:18;1.20;;;0.90;;
39970;SDS011;35425;51.142;17.178;2023-04-01T00:07:45;1.05;;;0.80;;
39970;SDS011;35425;51.142;17.178;2023-04-01T00:10:13;1.10;;;0.85;;
39970;SDS011;35425;51.142;17.178;2023-04-01T00:12:40;1.23;;;0.90;;
39970;SDS011;35425;51.142;17.178;2023-04-01T00:15:07;0.70;;;0.63;;
39970;SDS011;35425;51.142;17.178;2023-04-01T00:17:34;2.55;;;0.82;;
39970;SDS011;35425;51.142;17.178;2023-04-01T00:20:02;1.38;;;0.80;;
39970;SDS011;35425;51.142;17.178;2023-04-01T00:22:29;1.40;;;0.90;;
39970;SDS011;35425;51.142;17.178;2023-04-01T00:24:56;0.93;;;0.68;;
39970;SDS011;35425;51.142;17.178;2023-04-01T00:27:23;0.70;;;0.68;;
39970;SDS011;35425;51.142;17.178;2023-04-01T00:29:49;0.90;;;0.60;;
39970;SDS011;35425;51.142;17.178;2023-04-01T00:32:16;1.13;;;0.80;;
39970;SDS011;35425;51.142;17.178;2023-04-01T00:34:43;1.02;;;0.85;;
39970;SDS011;35425;51.142;17.178;2023-04-01T00:37:11;0.80;;;0.70;;
39970;SDS011;35425;51.142;17.178;2023-04-01T00:39:38;0.90;;;0.70;;
39970;SDS011;35425;51.142;17.178;2023-04-01T00:42:06;0.85;;;0.60;;
39970;SDS011;35425;51.142;17.178;2023-04-01T00:44:33;1.05;;;0.70;;
39970;SDS011;35425;51.142;17.178;2023-04-01T00:47:01;0.85;;;0.50;;
39970;SDS011;35425;51.142;17.178;2023-04-01T00:49:35;1.00;;;0.60;;
39970;SDS011;35425;51.142;17.178;2023-04-01T00:52:03;0.85;;;0.60;;
39970;SDS011;35425;51.142;17.178;2023-04-01T00:54:31;0.68;;;0.55;;
39970;SDS011;35425;51.142;17.178;2023-04-01T00:57:02;0.88;;;0.77;;
39970;SDS011;35425;51.142;17.178;2023-04-01T00:59:35;0.77;;;0.60;;
39970;SDS011;35425;51.142;17.178;2023-04-01T01:02:03;1.10;;;0.55;;
39970;SDS011;35425;51.142;17.178;2023-04-01T01:04:33;0.90;;;0.63;;
39970;SDS011;35425;51.142;17.178;2023-04-01T01:07:03;0.80;;;0.57;;
39970;SDS011;35425;51.142;17.178;2023-04-01T01:09:56;1.17;;;0.52;;
39970;SDS011;35425;51.142;17.178;2023-04-01T01:12:20;0.80;;;0.50;;
39970;SDS011;35425;51.142;17.178;2023-04-01T01:14:50;0.88;;;0.60;;
39970;SDS011;35425;51.142;17.178;2023-04-01T01:18:05;0.60;;;0.50;;
39970;SDS011;35425;51.142;17.178;2023-04-01T01:25:54;0.60;;;0.50;;
39970;SDS011;35425;51.142;17.178;2023-04-01T01:36:11;0.73;;;0.60;;
39970;SDS011;35425;51.142;17.178;2023-04-01T01:38:40;0.77;;;0.57;;
39970;SDS011;35425;51.142;17.178;2023-04-01T01:41:09;0.77;;;0.60;;
39970;SDS011;35425;51.142;17.178;2023-04-01T01:43:39;0.95;;;0.60;;
39970;SDS011;35425;51.142;17.178;2023-04-01T01:46:10;0.63;;;0.50;;
39970;SDS011;35425;51.142;17.178;2023-04-01T01:48:38;0.57;;;0.55;;
39970;SDS011;35425;51.142;17.178;2023-04-01T01:51:06;0.80;;;0.60;;
39970;SDS011;35425;51.142;17.178;2023-04-01T01:53:33;0.80;;;0.60;;
39970;SDS011;35425;51.142;17.178;2023-04-01T01:56:02;0.82;;;0.60;;
39970;SDS011;35425;51.142;17.178;2023-04-01T01:58:32;0.82;;;0.50;;
39970;SDS011;35425;51.142;17.178;2023-04-01T02:01:07;1.15;;;0.88;;
39970;SDS011;35425;51.142;17.178;2023-04-01T02:03:36;0.80;;;0.60;;
39970;SDS011;35425;51.142;17.178;2023-04-01T02:06:04;0.63;;;0.60;;
39970;SDS011;35425;51.142;17.178;2023-04-01T02:08:39;0.90;;;0.50;;
39970;SDS011;35425;51.142;17.178;2023-04-01T02:11:09;0.57;;;0.50;;
39970;SDS011;35425;51.142;17.178;2023-04-01T02:13:43;0.80;;;0.50;;
39970;SDS011;35425;51.142;17.178;2023-04-01T02:16:13;0.70;;;0.60;;
39970;SDS011;35425;51.142;17.178;2023-04-01T02:18:41;0.47;;;0.43;;
39970;SDS011;35425;51.142;17.178;2023-04-01T02:21:10;0.45;;;0.40;;
39970;SDS011;35425;51.142;17.178;2023-04-01T02:23:38;0.40;;;0.40;;
39970;SDS011;35425;51.142;17.178;2023-04-01T02:26:05;1.05;;;0.65;;
39970;SDS011;35425;51.142;17.178;2023-04-01T02:28:33;0.77;;;0.57;;
39970;SDS011;35425;51.142;17.178;2023-04-01T02:31:01;0.80;;;0.40;;
39970;SDS011;35425;51.142;17.178;2023-04-01T02:33:29;0.80;;;0.40;;
39970;SDS011;35425;51.142;17.178;2023-04-01T02:35:57;0.60;;;0.50;;
39970;SDS011;35425;51.142;17.178;2023-04-01T02:38:24;0.68;;;0.50;;
39970;SDS011;35425;51.142;17.178;2023-04-01T02:40:58;0.40;;;0.40;;
39970;SDS011;35425;51.142;17.178;2023-04-01T02:43:26;0.70;;;0.60;;
39970;SDS011;35425;51.142;17.178;2023-04-01T02:45:53;0.80;;;0.50;;
39970;SDS011;35425;51.142;17.178;2023-04-01T02:48:20;0.80;;;0.70;;
39970;SDS011;35425;51.142;17.178;2023-04-01T02:50:47;0.80;;;0.60;;
39970;SDS011;35425;51.142;17.178;2023-04-01T02:53:14;0.90;;;0.55;;
39970;SDS011;35425;51.142;17.178;2023-04-01T02:55:41;0.80;;;0.47;;
39970;SDS011;35425;51.142;17.178;2023-04-01T02:58:08;0.85;;;0.50;;
39970;SDS011;35425;51.142;17.178;2023-04-01T03:00:35;0.45;;;0.40;;
39970;SDS011;35425;51.142;17.178;2023-04-01T03:03:01;0.60;;;0.60;;
39970;SDS011;35425;51.142;17.178;2023-04-01T03:05:32;0.90;;;0.50;;
39970;SDS011;35425;51.142;17.178;2023-04-01T03:07:59;0.55;;;0.47;;
39970;SDS011;35425;51.142;17.178;2023-04-01T03:10:26;0.50;;;0.40;;
39970;SDS011;35425;51.142;17.178;2023-04-01T03:12:53;0.80;;;0.55;;
39970;SDS011;35425;51.142;17.178;2023-04-01T03:15:21;0.85;;;0.50;;
39970;SDS011;35425;51.142;17.178;2023-04-01T03:17:48;0.63;;;0.52;;
39970;SDS011;35425;51.142;17.178;2023-04-01T03:20:15;0.52;;;0.47;;
39970;SDS011;35425;51.142;17.178;2023-04-01T03:22:41;1.40;;;0.57;;
39970;SDS011;35425;51.142;17.178;2023-04-01T03:25:08;0.80;;;0.40;;
39970;SDS011;35425;51.142;17.178;2023-04-01T03:27:36;0.73;;;0.60;;
39970;SDS011;35425;51.142;17.178;2023-04-01T03:30:03;0.63;;;0.47;;
39970;SDS011;35425;51.142;17.178;2023-04-01T03:32:33;0.70;;;0.60;;
39970;SDS011;35425;51.142;17.178;2023-04-01T03:35:00;0.60;;;0.50;;
39970;SDS011;35425;51.142;17.178;2023-04-01T03:37:26;0.65;;;0.57;;
39970;SDS011;35425;51.142;17.178;2023-04-01T03:39:53;0.50;;;0.50;;
39970;SDS011;35425;51.142;17.178;2023-04-01T03:42:20;0.73;;;0.50;;
39970;SDS011;35425;51.142;17.178;2023-04-01T03:44:48;0.50;;;0.40;;
39970;SDS011;35425;51.142;17.178;2023-04-01T03:47:16;0.47;;;0.40;;
39970;SDS011;35425;51.142;17.178;2023-04-01T03:49:43;0.60;;;0.60;;
39970;SDS011;35425;51.142;17.178;2023-04-01T03:52:10;0.50;;;0.50;;
39970;SDS011;35425;51.142;17.178;2023-04-01T03:54:37;0.40;;;0.30;;
39970;SDS011;35425;51.142;17.178;2023-04-01T03:57:04;0.65;;;0.60;;
39970;SDS011;35425;51.142;17.178;2023-04-01T03:59:35;0.52;;;0.40;;
39970;SDS011;35425;51.142;17.178;2023-04-01T04:02:02;0.55;;;0.50;;
39970;SDS011;35425;51.142;17.178;2023-04-01T04:04:29;0.65;;;0.45;;
39970;SDS011;35425;51.142;17.178;2023-04-01T04:06:56;1.15;;;0.50;;
39970;SDS011;35425;51.142;17.178;2023-04-01T04:09:25;0.45;;;0.45;;
39970;SDS011;35425;51.142;17.178;2023-04-01T04:11:52;0.82;;;0.50;;
39970;SDS011;35425;51.142;17.178;2023-04-01T04:14:19;0.70;;;0.55;;
39970;SDS011;35425;51.142;17.178;2023-04-01T04:16:46;0.50;;;0.40;;
39970;SDS011;35425;51.142;17.178;2023-04-01T04:19:13;0.30;;;0.28;;
39970;SDS011;35425;51.142;17.178;2023-04-01T04:21:40;0.93;;;0.40;;
39970;SDS011;35425;51.142;17.178;2023-04-01T04:24:10;0.50;;;0.40;;
39970;SDS011;35425;51.142;17.178;2023-04-01T04:26:37;0.80;;;0.50;;
39970;SDS011;35425;51.142;17.178;2023-04-01T04:29:04;0.57;;;0.35;;
39970;SDS011;35425;51.142;17.178;2023-04-01T04:31:31;0.68;;;0.52;;
39970;SDS011;35425;51.142;17.178;2023-04-01T04:33:58;1.05;;;0.40;;
39970;SDS011;35425;51.142;17.178;2023-04-01T04:36:26;0.50;;;0.35;;
39970;SDS011;35425;51.142;17.178;2023-04-01T04:38:53;0.30;;;0.28;;
39970;SDS011;35425;51.142;17.178;2023-04-01T04:41:23;0.40;;;0.40;;
39970;SDS011;35425;51.142;17.178;2023-04-01T04:43:51;0.65;;;0.40;;
39970;SDS011;35425;51.142;17.178;2023-04-01T04:46:19;0.80;;;0.40;;
39970;SDS011;35425;51.142;17.178;2023-04-01T04:48:46;0.70;;;0.45;;
39970;SDS011;35425;51.142;17.178;2023-04-01T04:51:17;1.02;;;0.50;;
39970;SDS011;35425;51.142;17.178;2023-04-01T04:53:45;0.53;;;0.40;;
39970;SDS011;35425;51.142;17.178;2023-04-01T04:56:12;0.55;;;0.40;;
39970;SDS011;35425;51.142;17.178;2023-04-01T04:58:39;0.73;;;0.40;;
39970;SDS011;35425;51.142;17.178;2023-04-01T05:01:09;0.38;;;0.30;;
39970;SDS011;35425;51.142;17.178;2023-04-01T05:03:36;0.90;;;0.40;;
39970;SDS011;35425;51.142;17.178;2023-04-01T05:06:03;0.55;;;0.40;;
39970;SDS011;35425;51.142;17.178;2023-04-01T05:08:30;0.30;;;0.30;;
39970;SDS011;35425;51.142;17.178;2023-04-01T05:10:59;0.30;;;0.30;;
39970;SDS011;35425;51.142;17.178;2023-04-01T05:13:26;0.63;;;0.20;;
39970;SDS011;35425;51.142;17.178;2023-04-01T05:15:53;0.47;;;0.40;;
39970;SDS011;35425;51.142;17.178;2023-04-01T05:18:24;0.50;;;0.40;;
39970;SDS011;35425;51.142;17.178;2023-04-01T05:20:52;0.60;;;0.35;;
39970;SDS011;35425;51.142;17.178;2023-04-01T05:23:19;0.60;;;0.45;;
39970;SDS011;35425;51.142;17.178;2023-04-01T05:25:48;0.40;;;0.40;;
39970;SDS011;35425;51.142;17.178;2023-04-01T05:28:14;0.30;;;0.25;;
39970;SDS011;35425;51.142;17.178;2023-04-01T05:30:41;0.60;;;0.20;;
39970;SDS011;35425;51.142;17.178;2023-04-01T05:33:09;0.30;;;0.22;;
39970;SDS011;35425;51.142;17.178;2023-04-01T05:35:36;0.35;;;0.30;;
39970;SDS011;35425;51.142;17.178;2023-04-01T05:38:03;0.50;;;0.40;;
39970;SDS011;35425;51.142;17.178;2023-04-01T05:40:30;0.30;;;0.20;;
39970;SDS011;35425;51.142;17.178;2023-04-01T05:42:57;0.40;;;0.30;;
39970;SDS011;35425;51.142;17.178;2023-04-01T05:45:24;0.20;;;0.20;;
39970;SDS011;35425;51.142;17.178;2023-04-01T05:47:50;0.40;;;0.38;;
39970;SDS011;35425;51.142;17.178;2023-04-01T05:50:18;0.30;;;0.20;;
39970;SDS011;35425;51.142;17.178;2023-04-01T05:52:45;0.50;;;0.40;;
39970;SDS011;35425;51.142;17.178;2023-04-01T05:55:12;0.40;;;0.35;;
39970;SDS011;35425;51.142;17.178;2023-04-01T05:57:38;0.85;;;0.40;;
39970;SDS011;35425;51.142;17.178;2023-04-01T06:00:07;0.28;;;0.20;;
39970;SDS011;35425;51.142;17.178;2023-04-01T06:02:34;0.28;;;0.28;;
39970;SDS011;35425;51.142;17.178;2023-04-01T06:05:03;1.05;;;0.40;;
39970;SDS011;35425;51.142;17.178;2023-04-01T06:07:37;0.40;;;0.28;;
39970;SDS011;35425;51.142;17.178;2023-04-01T06:10:08;0.52;;;0.30;;
39970;SDS011;35425;51.142;17.178;2023-04-01T06:25:35;0.82;;;0.43;;
39970;SDS011;35425;51.142;17.178;2023-04-01T06:33:09;0.45;;;0.35;;
39970;SDS011;35425;51.142;17.178;2023-04-01T06:35:56;0.82;;;0.40;;
39970;SDS011;35425;51.142;17.178;2023-04-01T06:43:30;0.98;;;0.65;;
39970;SDS011;35425;51.142;17.178;2023-04-01T06:46:07;0.70;;;0.40;;
39970;SDS011;35425;51.142;17.178;2023-04-01T06:48:40;1.13;;;0.50;;
39970;SDS011;35425;51.142;17.178;2023-04-01T06:51:28;0.47;;;0.40;;
39970;SDS011;35425;51.142;17.178;2023-04-01T06:56:32;0.40;;;0.30;;
39970;SDS011;35425;51.142;17.178;2023-04-01T07:01:31;0.80;;;0.40;;
39970;SDS011;35425;51.142;17.178;2023-04-01T07:03:59;0.55;;;0.47;;
39970;SDS011;35425;51.142;17.178;2023-04-01T07:06:31;0.57;;;0.40;;
39970;SDS011;35425;51.142;17.178;2023-04-01T07:08:59;0.60;;;0.40;;
39970;SDS011;35425;51.142;17.178;2023-04-01T07:16:53;0.82;;;0.40;;
39970;SDS011;35425;51.142;17.178;2023-04-01T07:21:51;0.63;;;0.40;;
39970;SDS011;35425;51.142;17.178;2023-04-01T07:24:26;0.90;;;0.38;;
39970;SDS011;35425;51.142;17.178;2023-04-01T07:26:55;0.60;;;0.50;;
39970;SDS011;35425;51.142;17.178;2023-04-01T07:29:22;0.57;;;0.43;;
39970;SDS011;35425;51.142;17.178;2023-04-01T07:40:26;0.60;;;0.40;;
39970;SDS011;35425;51.142;17.178;2023-04-01T07:45:29;0.93;;;0.40;;
39970;SDS011;35425;51.142;17.178;2023-04-01T07:50:55;0.20;;;0.20;;
39970;SDS011;35425;51.142;17.178;2023-04-01T07:53:30;0.57;;;0.40;;
39970;SDS011;35425;51.142;17.178;2023-04-01T07:56:15;0.70;;;0.40;;
39970;SDS011;35425;51.142;17.178;2023-04-01T07:58:48;0.75;;;0.50;;
39970;SDS011;35425;51.142;17.178;2023-04-01T08:01:34;0.63;;;0.40;;
39970;SDS011;35425;51.142;17.178;2023-04-01T08:04:27;0.60;;;0.60;;
39970;SDS011;35425;51.142;17.178;2023-04-01T08:06:52;0.85;;;0.50;;
39970;SDS011;35425;51.142;17.178;2023-04-01T08:09:24;0.73;;;0.40;;
39970;SDS011;35425;51.142;17.178;2023-04-01T08:22:51;0.93;;;0.50;;
39970;SDS011;35425;51.142;17.178;2023-04-01T08:25:22;0.85;;;0.50;;
39970;SDS011;35425;51.142;17.178;2023-04-01T08:27:51;0.90;;;0.40;;
39970;SDS011;35425;51.142;17.178;2023-04-01T08:30:20;0.50;;;0.40;;
39970;SDS011;35425;51.142;17.178;2023-04-01T08:32:51;0.47;;;0.40;;
39970;SDS011;35425;51.142;17.178;2023-04-01T08:35:24;1.60;;;0.50;;
39970;SDS011;35425;51.142;17.178;2023-04-01T08:37:51;1.00;;;0.60;;
39970;SDS011;35425;51.142;17.178;2023-04-01T08:45:54;0.70;;;0.52;;
39970;SDS011;35425;51.142;17.178;2023-04-01T08:51:09;0.70;;;0.40;;
39970;SDS011;35425;51.142;17.178;2023-04-01T09:01:35;0.82;;;0.50;;
39970;SDS011;35425;51.142;17.178;2023-04-01T09:06:52;0.60;;;0.40;;
39970;SDS011;35425;51.142;17.178;2023-04-01T09:09:44;0.90;;;0.60;;
39970;SDS011;35425;51.142;17.178;2023-04-01T09:15:13;1.08;;;0.50;;
39970;SDS011;35425;51.142;17.178;2023-04-01T09:28:28;0.98;;;0.40;;
39970;SDS011;35425;51.142;17.178;2023-04-01T09:31:05;0.52;;;0.40;;
39970;SDS011;35425;51.142;17.178;2023-04-01T09:39:15;0.65;;;0.50;;
39970;SDS011;35425;51.142;17.178;2023-04-01T09:41:57;0.75;;;0.40;;
39970;SDS011;35425;51.142;17.178;2023-04-01T09:44:47;0.63;;;0.50;;
39970;SDS011;35425;51.142;17.178;2023-04-01T10:07:59;0.50;;;0.40;;
39970;SDS011;35425;51.142;17.178;2023-04-01T10:18:26;0.60;;;0.40;;
39970;SDS011;35425;51.142;17.178;2023-04-01T10:21:06;1.05;;;0.50;;
39970;SDS011;35425;51.142;17.178;2023-04-01T10:26:18;0.70;;;0.50;;
39970;SDS011;35425;51.142;17.178;2023-04-01T10:36:54;0.40;;;0.25;;
39970;SDS011;35425;51.142;17.178;2023-04-01T10:44:56;0.47;;;0.40;;
39970;SDS011;35425;51.142;17.178;2023-04-01T10:47:39;0.85;;;0.30;;
39970;SDS011;35425;51.142;17.178;2023-04-01T10:53:05;0.50;;;0.47;;
39970;SDS011;35425;51.142;17.178;2023-04-01T11:16:23;0.68;;;0.57;;
39970;SDS011;35425;51.142;17.178;2023-04-01T11:31:50;0.35;;;0.30;;
39970;SDS011;35425;51.142;17.178;2023-04-01T11:34:26;0.20;;;0.20;;
39970;SDS011;35425;51.142;17.178;2023-04-01T11:40:10;0.52;;;0.40;;
39970;SDS011;35425;51.142;17.178;2023-04-01T11:42:45;0.50;;;0.20;;
39970;SDS011;35425;51.142;17.178;2023-04-01T11:45:22;0.45;;;0.30;;
39970;SDS011;35425;51.142;17.178;2023-04-01T11:47:58;1.40;;;0.40;;
39970;SDS011;35425;51.142;17.178;2023-04-01T11:53:05;0.30;;;0.30;;
39970;SDS011;35425;51.142;17.178;2023-04-01T11:55:44;0.50;;;0.40;;
39970;SDS011;35425;51.142;17.178;2023-04-01T11:58:19;0.47;;;0.32;;
39970;SDS011;35425;51.142;17.178;2023-04-01T12:00:53;0.68;;;0.40;;
39970;SDS011;35425;51.142;17.178;2023-04-01T12:06:05;0.68;;;0.30;;
39970;SDS011;35425;51.142;17.178;2023-04-01T12:08:54;0.73;;;0.40;;
39970;SDS011;35425;51.142;17.178;2023-04-01T12:11:27;0.40;;;0.30;;
39970;SDS011;35425;51.142;17.178;2023-04-01T12:16:55;0.43;;;0.30;;
39970;SDS011;35425;51.142;17.178;2023-04-01T12:24:22;0.45;;;0.30;;
39970;SDS011;35425;51.142;17.178;2023-04-01T12:35:41;0.40;;;0.38;;
39970;SDS011;35425;51.142;17.178;2023-04-01T12:43:28;0.80;;;0.32;;
39970;SDS011;35425;51.142;17.178;2023-04-01T12:51:36;1.13;;;0.30;;
39970;SDS011;35425;51.142;17.178;2023-04-01T12:54:16;0.60;;;0.30;;
39970;SDS011;35425;51.142;17.178;2023-04-01T13:04:55;0.32;;;0.30;;
39970;SDS011;35425;51.142;17.178;2023-04-01T13:10:37;0.38;;;0.38;;
39970;SDS011;35425;51.142;17.178;2023-04-01T13:13:09;0.40;;;0.30;;
39970;SDS011;35425;51.142;17.178;2023-04-01T13:28:23;0.52;;;0.20;;
39970;SDS011;35425;51.142;17.178;2023-04-01T13:31:06;0.40;;;0.30;;
39970;SDS011;35425;51.142;17.178;2023-04-01T13:43:58;0.70;;;0.30;;
39970;SDS011;35425;51.142;17.178;2023-04-01T14:08:07;0.57;;;0.30;;
39970;SDS011;35425;51.142;17.178;2023-04-01T14:21:10;0.30;;;0.30;;
39970;SDS011;35425;51.142;17.178;2023-04-01T14:23:40;0.40;;;0.30;;
39970;SDS011;35425;51.142;17.178;2023-04-01T14:28:46;0.63;;;0.32;;
39970;SDS011;35425;51.142;17.178;2023-04-01T14:34:00;0.40;;;0.40;;
39970;SDS011;35425;51.142;17.178;2023-04-01T14:39:12;0.75;;;0.40;;
39970;SDS011;35425;51.142;17.178;2023-04-01T14:49:24;0.40;;;0.30;;
39970;SDS011;35425;51.142;17.178;2023-04-01T14:52:03;0.40;;;0.40;;
39970;SDS011;35425;51.142;17.178;2023-04-01T14:54:34;0.32;;;0.32;;
39970;SDS011;35425;51.142;17.178;2023-04-01T14:59:35;0.50;;;0.40;;
39970;SDS011;35425;51.142;17.178;2023-04-01T15:07:51;0.63;;;0.38;;
39970;SDS011;35425;51.142;17.178;2023-04-01T15:12:26;0.65;;;0.30;;
39970;SDS011;35425;51.142;17.178;2023-04-01T15:25:36;0.70;;;0.40;;
39970;SDS011;35425;51.142;17.178;2023-04-01T15:28:16;0.90;;;0.57;;
39970;SDS011;35425;51.142;17.178;2023-04-01T15:41:11;0.80;;;0.70;;
39970;SDS011;35425;51.142;17.178;2023-04-01T15:43:41;0.80;;;0.70;;
39970;SDS011;35425;51.142;17.178;2023-04-01T15:51:19;0.98;;;0.60;;
39970;SDS011;35425;51.142;17.178;2023-04-01T15:54:37;1.20;;;0.80;;
39970;SDS011;35425;51.142;17.178;2023-04-01T16:01:46;1.17;;;0.93;;
39970;SDS011;35425;51.142;17.178;2023-04-01T16:12:19;1.15;;;1.00;;
39970;SDS011;35425;51.142;17.178;2023-04-01T16:14:57;1.00;;;0.90;;
39970;SDS011;35425;51.142;17.178;2023-04-01T16:20:13;1.63;;;1.00;;
39970;SDS011;35425;51.142;17.178;2023-04-01T16:22:57;1.13;;;1.00;;
39970;SDS011;35425;51.142;17.178;2023-04-01T16:25:31;1.23;;;1.10;;
39970;SDS011;35425;51.142;17.178;2023-04-01T16:30:34;1.25;;;1.15;;
39970;SDS011;35425;51.142;17.178;2023-04-01T16:37:59;1.13;;;0.95;;
39970;SDS011;35425;51.142;17.178;2023-04-01T16:42:55;1.20;;;1.10;;
39970;SDS011;35425;51.142;17.178;2023-04-01T16:45:31;1.17;;;1.08;;
39970;SDS011;35425;51.142;17.178;2023-04-01T16:48:21;1.67;;;1.00;;
39970;SDS011;35425;51.142;17.178;2023-04-01T16:58:35;1.80;;;0.95;;
39970;SDS011;35425;51.142;17.178;2023-04-01T17:01:07;1.15;;;1.05;;
39970;SDS011;35425;51.142;17.178;2023-04-01T17:03:40;1.20;;;1.10;;
39970;SDS011;35425;51.142;17.178;2023-04-01T17:11:13;1.50;;;1.40;;
39970;SDS011;35425;51.142;17.178;2023-04-01T17:16:41;1.60;;;1.50;;
39970;SDS011;35425;51.142;17.178;2023-04-01T17:26:50;2.10;;;1.90;;
39970;SDS011;35425;51.142;17.178;2023-04-01T17:29:26;3.08;;;2.72;;
39970;SDS011;35425;51.142;17.178;2023-04-01T17:44:56;3.30;;;3.00;;
39970;SDS011;35425;51.142;17.178;2023-04-01T17:47:31;3.10;;;2.80;;
39970;SDS011;35425;51.142;17.178;2023-04-01T17:50:13;3.53;;;3.22;;
39970;SDS011;35425;51.142;17.178;2023-04-01T17:53:03;3.72;;;3.10;;
39970;SDS011;35425;51.142;17.178;2023-04-01T17:55:54;4.68;;;3.33;;
39970;SDS011;35425;51.142;17.178;2023-04-01T18:09:09;4.07;;;3.67;;
39970;SDS011;35425;51.142;17.178;2023-04-01T18:19:23;4.03;;;3.70;;
39970;SDS011;35425;51.142;17.178;2023-04-01T18:22:10;4.32;;;3.92;;
39970;SDS011;35425;51.142;17.178;2023-04-01T18:24:45;4.20;;;3.80;;
39970;SDS011;35425;51.142;17.178;2023-04-01T18:27:17;4.80;;;4.10;;
39970;SDS011;35425;51.142;17.178;2023-04-01T18:29:53;4.10;;;3.75;;
39970;SDS011;35425;51.142;17.178;2023-04-01T18:40:34;5.30;;;4.80;;
39970;SDS011;35425;51.142;17.178;2023-04-01T18:45:32;5.15;;;4.65;;
39970;SDS011;35425;51.142;17.178;2023-04-01T18:48:06;5.32;;;4.82;;
39970;SDS011;35425;51.142;17.178;2023-04-01T18:50:51;5.25;;;4.75;;
39970;SDS011;35425;51.142;17.178;2023-04-01T18:55:59;4.75;;;4.35;;
39970;SDS011;35425;51.142;17.178;2023-04-01T18:58:42;5.22;;;4.72;;
39970;SDS011;35425;51.142;17.178;2023-04-01T19:01:14;4.93;;;4.50;;
39970;SDS011;35425;51.142;17.178;2023-04-01T19:03:45;4.78;;;4.38;;
39970;SDS011;35425;51.142;17.178;2023-04-01T19:06:23;5.10;;;4.60;;
39970;SDS011;35425;51.142;17.178;2023-04-01T19:08:54;4.65;;;4.25;;
39970;SDS011;35425;51.142;17.178;2023-04-01T19:14:04;4.28;;;3.95;;
39970;SDS011;35425;51.142;17.178;2023-04-01T19:16:50;4.68;;;4.28;;
39970;SDS011;35425;51.142;17.178;2023-04-01T19:40:06;4.65;;;4.20;;
39970;SDS011;35425;51.142;17.178;2023-04-01T19:53:13;4.80;;;4.40;;
39970;SDS011;35425;51.142;17.178;2023-04-01T19:55:47;4.80;;;4.40;;
39970;SDS011;35425;51.142;17.178;2023-04-01T20:00:44;4.97;;;4.57;;
39970;SDS011;35425;51.142;17.178;2023-04-01T20:06:24;5.35;;;4.85;;
39970;SDS011;35425;51.142;17.178;2023-04-01T20:14:00;5.15;;;4.70;;
39970;SDS011;35425;51.142;17.178;2023-04-01T20:16:43;6.20;;;5.60;;
39970;SDS011;35425;51.142;17.178;2023-04-01T20:19:25;5.50;;;5.00;;
39970;SDS011;35425;51.142;17.178;2023-04-01T20:21:54;5.85;;;5.35;;
39970;SDS011;35425;51.142;17.178;2023-04-01T20:24:23;5.85;;;5.35;;
39970;SDS011;35425;51.142;17.178;2023-04-01T20:26:59;6.07;;;5.47;;
39970;SDS011;35425;51.142;17.178;2023-04-01T20:32:26;5.88;;;5.38;;
39970;SDS011;35425;51.142;17.178;2023-04-01T20:53:12;7.30;;;6.70;;
39970;SDS011;35425;51.142;17.178;2023-04-01T21:01:24;7.00;;;6.40;;
39970;SDS011;35425;51.142;17.178;2023-04-01T21:04:10;7.05;;;6.45;;
39970;SDS011;35425;51.142;17.178;2023-04-01T21:09:37;7.65;;;6.95;;
39970;SDS011;35425;51.142;17.178;2023-04-01T21:12:16;6.30;;;5.80;;
39970;SDS011;35425;51.142;17.178;2023-04-01T21:14:47;6.65;;;6.05;;
39970;SDS011;35425;51.142;17.178;2023-04-01T21:38:05;7.50;;;6.80;;
39970;SDS011;35425;51.142;17.178;2023-04-01T21:40:39;7.47;;;6.82;;
39970;SDS011;35425;51.142;17.178;2023-04-01T21:45:46;7.80;;;7.10;;
39970;SDS011;35425;51.142;17.178;2023-04-01T21:50:44;7.57;;;6.88;;
39970;SDS011;35425;51.142;17.178;2023-04-01T21:58:46;7.53;;;6.82;;
39970;SDS011;35425;51.142;17.178;2023-04-01T22:02:21;7.95;;;7.25;;
39970;SDS011;35425;51.142;17.178;2023-04-01T22:06:42;7.82;;;7.03;;
39970;SDS011;35425;51.142;17.178;2023-04-01T22:09:18;7.25;;;6.65;;
39970;SDS011;35425;51.142;17.178;2023-04-01T22:14:38;7.78;;;7.07;;
39970;SDS011;35425;51.142;17.178;2023-04-01T22:17:32;7.57;;;6.88;;
39970;SDS011;35425;51.142;17.178;2023-04-01T22:20:01;7.45;;;6.75;;
39970;SDS011;35425;51.142;17.178;2023-04-01T22:25:33;7.75;;;6.95;;
39970;SDS011;35425;51.142;17.178;2023-04-01T22:28:12;7.75;;;6.97;;
39970;SDS011;35425;51.142;17.178;2023-04-01T22:30:51;7.35;;;6.72;;
39970;SDS011;35425;51.142;17.178;2023-04-01T22:38:51;7.53;;;6.88;;
39970;SDS011;35425;51.142;17.178;2023-04-01T22:43:58;7.15;;;6.55;;
39970;SDS011;35425;51.142;17.178;2023-04-01T22:49:02;6.57;;;5.95;;
39970;SDS011;35425;51.142;17.178;2023-04-01T22:51:41;6.85;;;6.25;;
39970;SDS011;35425;51.142;17.178;2023-04-01T22:54:13;6.93;;;6.32;;
39970;SDS011;35425;51.142;17.178;2023-04-01T22:56:52;6.97;;;6.28;;
39970;SDS011;35425;51.142;17.178;2023-04-01T23:01:57;6.15;;;5.65;;
39970;SDS011;35425;51.142;17.178;2023-04-01T23:04:31;6.55;;;6.05;;
39970;SDS011;35425;51.142;17.178;2023-04-01T23:07:02;6.38;;;5.78;;
39970;SDS011;35425;51.142;17.178;2023-04-01T23:09:31;5.17;;;4.77;;
39970;SDS011;35425;51.142;17.178;2023-04-01T23:11:59;5.40;;;5.00;;
39970;SDS011;35425;51.142;17.178;2023-04-01T23:17:09;5.07;;;4.68;;
39970;SDS011;35425;51.142;17.178;2023-04-01T23:19:47;5.20;;;4.80;;
39970;SDS011;35425;51.142;17.178;2023-04-01T23:27:36;4.68;;;4.30;;
39970;SDS011;35425;51.142;17.178;2023-04-01T23:30:19;4.00;;;3.70;;
39970;SDS011;35425;51.142;17.178;2023-04-01T23:32:52;3.80;;;3.50;;
39970;SDS011;35425;51.142;17.178;2023-04-01T23:35:19;4.00;;;3.60;;
39970;SDS011;35425;51.142;17.178;2023-04-01T23:37:46;4.03;;;3.70;;
39970;SDS011;35425;51.142;17.178;2023-04-01T23:40:13;4.25;;;3.90;;
39970;SDS011;35425;51.142;17.178;2023-04-01T23:42:41;3.50;;;3.20;;
39970;SDS011;35425;51.142;17.178;2023-04-01T23:45:15;4.05;;;3.75;;
39970;SDS011;35425;51.142;17.178;2023-04-01T23:47:49;3.67;;;3.35;;
39970;SDS011;35425;51.142;17.178;2023-04-01T23:50:20;3.45;;;3.25;;
39970;SDS011;35425;51.142;17.178;2023-04-01T23:52:53;3.63;;;3.33;;
39970;SDS011;35425;51.142;17.178;2023-04-01T23:55:28;3.47;;;3.17;;
39970;SDS011;35425;51.142;17.178;2023-04-01T23:58:05;3.58;;;3.28;;
